createdAt,value
2018-12-06T00:00:30.594Z,6.82
2018-12-06T00:02:58.121Z,6.81
2018-12-06T00:05:25.779Z,6.80
2018-12-06T00:08:05.098Z,6.81
2018-12-06T00:10:32.677Z,6.84
2018-12-06T00:13:00.172Z,6.83
2018-12-06T00:15:27.835Z,6.84
2018-12-06T00:17:55.363Z,6.82
2018-12-06T00:20:22.921Z,6.83
2018-12-06T00:22:50.462Z,6.84
2018-12-06T00:25:17.950Z,6.86
2018-12-06T00:27:45.429Z,6.86
2018-12-06T00:30:24.733Z,6.85
2018-12-06T00:32:52.271Z,6.87
2018-12-06T00:35:20.431Z,6.85
2018-12-06T00:37:47.926Z,6.84
2018-12-06T00:40:15.437Z,6.85
2018-12-06T00:42:42.966Z,6.89
2018-12-06T00:45:10.550Z,6.88
2018-12-06T00:47:38.080Z,6.86
2018-12-06T00:50:05.582Z,6.88
2018-12-06T00:52:34.625Z,6.87
2018-12-06T00:55:04.121Z,6.92
2018-12-06T00:57:32.624Z,6.89
2018-12-06T01:00:02.022Z,6.90
2018-12-06T01:02:30.306Z,6.89
2018-12-06T01:05:00.241Z,6.89
2018-12-06T01:07:29.928Z,6.90
2018-12-06T01:09:59.354Z,6.89
2018-12-06T01:12:26.895Z,6.91
2018-12-06T01:14:54.410Z,6.87
2018-12-06T01:17:21.901Z,6.92
2018-12-06T01:19:49.437Z,6.90
2018-12-06T01:22:16.934Z,6.91
2018-12-06T01:24:44.449Z,6.89
2018-12-06T01:27:12.025Z,6.90
2018-12-06T01:29:39.560Z,6.89
2018-12-06T01:32:07.213Z,6.92
2018-12-06T01:34:35.458Z,6.92
2018-12-06T01:37:03.067Z,6.93
2018-12-06T01:39:30.628Z,6.94
2018-12-06T01:41:58.146Z,6.93
2018-12-06T01:44:25.668Z,6.92
2018-12-06T01:46:53.314Z,6.94
2018-12-06T01:49:20.818Z,6.96
2018-12-06T01:51:48.326Z,6.99
2018-12-06T01:54:15.884Z,6.97
2018-12-06T01:56:43.397Z,7.01
2018-12-06T01:59:11.024Z,7.05
2018-12-06T02:01:38.580Z,7.06
2018-12-06T02:04:06.109Z,7.07
2018-12-06T02:06:33.617Z,7.08
2018-12-06T02:09:01.122Z,7.12
2018-12-06T02:11:28.641Z,7.14
2018-12-06T02:13:56.136Z,7.17
2018-12-06T02:16:23.682Z,7.14
2018-12-06T02:18:51.306Z,7.16
2018-12-06T02:21:19.026Z,7.15
2018-12-06T02:23:46.545Z,7.21
2018-12-06T02:26:14.081Z,7.21
2018-12-06T02:28:41.640Z,7.22
2018-12-06T02:31:09.251Z,7.23
2018-12-06T02:33:36.834Z,7.21
2018-12-06T02:36:04.324Z,7.23
2018-12-06T02:38:31.831Z,7.26
2018-12-06T02:40:59.382Z,7.27
2018-12-06T02:43:26.949Z,7.27
2018-12-06T02:45:54.473Z,7.28
2018-12-06T02:48:21.966Z,7.27
2018-12-06T02:50:49.839Z,7.30
2018-12-06T02:53:17.423Z,7.32
2018-12-06T02:55:44.965Z,7.32
2018-12-06T02:58:12.527Z,7.35
2018-12-06T03:00:40.071Z,7.36
2018-12-06T03:03:07.704Z,7.36
2018-12-06T03:05:35.462Z,7.38
2018-12-06T03:08:03.007Z,7.39
2018-12-06T03:10:30.516Z,7.42
2018-12-06T03:12:58.151Z,7.43
2018-12-06T03:15:25.730Z,7.41
2018-12-06T03:17:53.273Z,7.46
2018-12-06T03:20:20.813Z,7.45
2018-12-06T03:22:48.382Z,7.47
2018-12-06T03:25:15.909Z,7.49
2018-12-06T03:27:43.466Z,7.49
2018-12-06T03:30:11.037Z,7.50
2018-12-06T03:32:38.761Z,7.51
2018-12-06T03:35:06.435Z,7.52
2018-12-06T03:37:33.996Z,7.51
2018-12-06T03:40:01.540Z,7.54
2018-12-06T03:42:29.068Z,7.55
2018-12-06T03:44:56.593Z,7.56
2018-12-06T03:47:24.179Z,7.59
2018-12-06T03:49:51.685Z,7.60
2018-12-06T03:52:19.211Z,7.60
2018-12-06T03:54:46.768Z,7.61
2018-12-06T03:57:14.510Z,7.64
2018-12-06T03:59:42.022Z,7.66
2018-12-06T04:02:09.522Z,7.67
2018-12-06T04:04:37.031Z,7.69
2018-12-06T04:07:04.565Z,7.71
2018-12-06T04:09:32.148Z,7.72
2018-12-06T04:11:59.644Z,7.75
2018-12-06T04:14:27.207Z,7.77
2018-12-06T04:16:54.721Z,7.78
2018-12-06T04:19:22.237Z,7.80
2018-12-06T04:21:49.935Z,7.80
2018-12-06T04:24:17.493Z,7.81
2018-12-06T04:26:45.094Z,7.83
2018-12-06T04:29:12.659Z,7.84
2018-12-06T04:31:40.302Z,7.84
2018-12-06T04:34:07.785Z,7.85
2018-12-06T04:36:35.281Z,7.85
2018-12-06T04:39:04.826Z,7.88
2018-12-06T04:41:32.542Z,7.89
2018-12-06T04:44:00.056Z,7.89
2018-12-06T04:46:27.555Z,7.89
2018-12-06T04:48:55.414Z,7.91
2018-12-06T04:51:22.942Z,7.92
2018-12-06T04:53:50.430Z,7.92
2018-12-06T04:56:17.934Z,7.93
2018-12-06T04:58:45.490Z,7.93
2018-12-06T05:01:13.118Z,7.97
2018-12-06T05:03:40.677Z,7.96
2018-12-06T05:06:08.227Z,7.96
2018-12-06T05:08:35.738Z,7.98
2018-12-06T05:11:03.225Z,7.99
2018-12-06T05:13:30.832Z,8.01
2018-12-06T05:15:58.314Z,8.01
2018-12-06T05:18:25.801Z,8.03
2018-12-06T05:20:53.308Z,8.04
2018-12-06T05:23:20.821Z,8.04
2018-12-06T05:25:48.425Z,8.06
2018-12-06T05:28:15.998Z,8.08
2018-12-06T05:30:43.555Z,8.10
2018-12-06T05:33:11.080Z,8.10
2018-12-06T05:35:38.606Z,8.11
2018-12-06T05:38:06.092Z,8.10
2018-12-06T05:40:33.631Z,8.12
2018-12-06T05:43:01.129Z,8.12
2018-12-06T05:45:28.659Z,8.13
2018-12-06T05:47:56.225Z,8.14
2018-12-06T05:50:23.777Z,8.19
2018-12-06T05:52:51.323Z,8.21
2018-12-06T05:55:18.839Z,8.23
2018-12-06T05:57:48.183Z,8.25
2018-12-06T06:00:16.029Z,8.25
2018-12-06T06:02:43.531Z,8.29
2018-12-06T06:05:11.018Z,8.30
2018-12-06T06:07:38.594Z,8.32
2018-12-06T06:10:06.098Z,8.34
2018-12-06T06:12:33.616Z,8.36
2018-12-06T06:15:01.165Z,8.38
2018-12-06T06:17:28.724Z,8.41
2018-12-06T06:19:56.217Z,8.46
2018-12-06T06:22:24.112Z,8.49
2018-12-06T06:24:51.604Z,8.52
2018-12-06T06:27:19.102Z,8.53
2018-12-06T06:29:46.774Z,8.57
2018-12-06T06:32:14.287Z,8.62
2018-12-06T06:34:41.776Z,8.63
2018-12-06T06:37:09.362Z,8.64
2018-12-06T06:39:36.879Z,8.68
2018-12-06T06:42:04.409Z,8.70
2018-12-06T06:44:31.943Z,8.67
2018-12-06T06:46:59.446Z,8.70
2018-12-06T06:49:27.034Z,8.72
2018-12-06T06:51:54.548Z,8.72
2018-12-06T06:54:22.068Z,8.74
2018-12-06T06:56:49.641Z,8.75
2018-12-06T06:59:17.125Z,8.78
2018-12-06T07:01:44.715Z,8.80
2018-12-06T07:04:12.248Z,8.82
2018-12-06T07:06:39.758Z,8.84
2018-12-06T07:09:08.262Z,8.86
2018-12-06T07:11:36.251Z,8.89
2018-12-06T07:14:04.229Z,8.90
2018-12-06T07:16:31.766Z,8.92
2018-12-06T07:18:59.322Z,8.94
2018-12-06T07:21:26.938Z,8.95
2018-12-06T07:23:54.458Z,8.96
2018-12-06T07:26:21.963Z,8.98
2018-12-06T07:28:49.476Z,8.97
2018-12-06T07:31:16.998Z,8.99
2018-12-06T07:33:44.645Z,9.01
2018-12-06T07:36:12.128Z,9.04
2018-12-06T07:38:39.636Z,9.07
2018-12-06T07:41:07.158Z,9.08
2018-12-06T07:43:34.677Z,9.09
2018-12-06T07:46:08.575Z,9.13
2018-12-06T07:48:36.202Z,9.17
2018-12-06T07:51:03.772Z,9.18
2018-12-06T07:53:31.384Z,9.20
2018-12-06T07:55:58.908Z,9.22
2018-12-06T07:58:26.463Z,9.28
2018-12-06T08:00:54.034Z,9.28
2018-12-06T08:03:21.527Z,9.30
2018-12-06T08:05:49.213Z,9.34
2018-12-06T08:08:16.746Z,9.36
2018-12-06T08:10:44.256Z,9.36
2018-12-06T08:13:11.768Z,9.40
2018-12-06T08:15:39.395Z,9.43
2018-12-06T08:18:07.134Z,9.46
2018-12-06T08:20:34.680Z,9.48
2018-12-06T08:23:02.177Z,9.50
2018-12-06T08:25:29.742Z,9.55
2018-12-06T08:27:57.262Z,9.55
2018-12-06T08:30:24.788Z,9.56
2018-12-06T08:32:52.313Z,9.58
2018-12-06T08:35:19.892Z,9.58
2018-12-06T08:37:47.395Z,9.60
2018-12-06T08:40:14.922Z,9.63
2018-12-06T08:42:45.718Z,9.62
2018-12-06T08:45:12.043Z,9.65
2018-12-06T08:47:39.852Z,9.67
2018-12-06T08:50:07.346Z,9.68
2018-12-06T08:52:34.965Z,9.70
2018-12-06T08:55:02.456Z,9.72
2018-12-06T08:57:29.956Z,9.71
2018-12-06T08:59:57.634Z,9.73
2018-12-06T09:02:30.973Z,9.74
2018-12-06T09:04:58.617Z,9.76
2018-12-06T09:07:26.335Z,9.76
2018-12-06T09:09:53.836Z,9.77
2018-12-06T09:12:21.336Z,9.77
2018-12-06T09:14:48.832Z,9.81
2018-12-06T09:17:16.369Z,9.83
2018-12-06T09:19:43.853Z,9.84
2018-12-06T09:22:11.354Z,9.87
2018-12-06T09:24:38.967Z,9.91
2018-12-06T09:27:06.473Z,9.94
2018-12-06T09:29:33.961Z,9.97
2018-12-06T09:32:01.494Z,10.00
2018-12-06T09:34:28.981Z,10.00
2018-12-06T09:36:56.480Z,10.02
2018-12-06T09:39:23.991Z,10.06
2018-12-06T09:41:51.495Z,10.07
2018-12-06T09:44:19.077Z,10.10
2018-12-06T09:46:46.593Z,10.13
2018-12-06T09:49:14.131Z,10.14
2018-12-06T09:51:41.651Z,10.19
2018-12-06T09:54:09.158Z,10.21
2018-12-06T09:56:36.674Z,10.22
2018-12-06T09:59:04.220Z,10.25
2018-12-06T10:01:31.817Z,10.27
2018-12-06T10:03:59.303Z,10.29
2018-12-06T10:06:26.793Z,10.27
2018-12-06T10:08:54.307Z,10.29
2018-12-06T10:11:21.880Z,10.35
2018-12-06T10:13:49.557Z,10.37
2018-12-06T10:16:17.048Z,10.35
2018-12-06T10:18:44.542Z,10.37
2018-12-06T10:21:12.056Z,10.37
2018-12-06T10:23:39.641Z,10.39
2018-12-06T10:26:07.737Z,10.42
2018-12-06T10:28:35.283Z,10.45
2018-12-06T10:31:02.828Z,10.45
2018-12-06T10:33:30.326Z,10.47
2018-12-06T10:35:57.971Z,10.49
2018-12-06T10:38:25.569Z,10.50
2018-12-06T10:40:53.560Z,10.54
2018-12-06T10:43:21.105Z,10.55
2018-12-06T10:45:48.668Z,10.57
2018-12-06T10:48:16.257Z,10.59
2018-12-06T10:50:43.781Z,10.62
2018-12-06T10:53:11.274Z,10.65
2018-12-06T10:55:38.817Z,10.66
2018-12-06T10:58:06.323Z,10.66
2018-12-06T11:00:39.502Z,10.68
2018-12-06T11:03:13.876Z,10.74
2018-12-06T11:05:41.427Z,10.74
2018-12-06T11:08:08.912Z,10.75
2018-12-06T11:10:36.427Z,10.76
2018-12-06T11:13:03.933Z,10.80
2018-12-06T11:15:31.480Z,10.81
2018-12-06T11:17:59.027Z,10.82
2018-12-06T11:20:26.573Z,10.85
2018-12-06T11:22:54.065Z,10.86
2018-12-06T11:25:51.342Z,10.88
2018-12-06T11:28:18.897Z,10.93
2018-12-06T11:30:46.448Z,10.96
2018-12-06T11:33:13.957Z,10.99
2018-12-06T11:35:41.578Z,11.01
2018-12-06T11:38:09.118Z,11.04
2018-12-06T11:40:36.651Z,11.07
2018-12-06T11:43:04.230Z,11.09
2018-12-06T11:45:31.759Z,11.10
2018-12-06T11:47:59.247Z,11.14
2018-12-06T11:50:26.810Z,11.14
2018-12-06T11:52:54.336Z,11.18
2018-12-06T11:55:21.892Z,11.21
2018-12-06T11:57:49.576Z,11.21
2018-12-06T12:00:17.097Z,11.24
2018-12-06T12:02:44.618Z,11.27
2018-12-06T12:05:12.137Z,11.29
2018-12-06T12:07:39.628Z,11.31
2018-12-06T12:10:07.177Z,11.31
2018-12-06T12:12:34.674Z,11.32
2018-12-06T12:15:02.169Z,11.34
2018-12-06T12:17:29.673Z,11.37
2018-12-06T12:19:57.328Z,11.39
2018-12-06T12:22:24.816Z,11.46
2018-12-06T12:24:52.423Z,11.46
2018-12-06T12:27:19.982Z,11.45
2018-12-06T12:29:47.489Z,11.44
2018-12-06T12:32:15.039Z,11.43
2018-12-06T12:34:42.522Z,11.44
2018-12-06T12:37:10.055Z,11.45
2018-12-06T12:39:37.773Z,11.44
2018-12-06T12:42:05.295Z,11.45
2018-12-06T12:44:32.902Z,11.46
2018-12-06T12:47:00.384Z,11.46
2018-12-06T12:49:28.009Z,11.45
2018-12-06T12:51:55.499Z,11.48
2018-12-06T12:54:23.381Z,11.49
2018-12-06T12:56:50.886Z,11.50
2018-12-06T12:59:18.429Z,11.53
2018-12-06T13:01:45.992Z,11.54
2018-12-06T13:04:13.477Z,11.57
2018-12-06T13:06:40.991Z,11.55
2018-12-06T13:09:08.505Z,11.55
2018-12-06T13:11:35.993Z,11.57
2018-12-06T13:14:03.500Z,11.56
2018-12-06T13:16:30.994Z,11.59
2018-12-06T13:18:58.534Z,11.58
2018-12-06T13:21:26.014Z,11.58
2018-12-06T13:23:53.557Z,11.56
2018-12-06T13:26:21.077Z,11.54
2018-12-06T13:28:48.573Z,11.54
2018-12-06T13:31:16.161Z,11.54
2018-12-06T13:33:44.081Z,11.51
2018-12-06T13:36:11.565Z,11.50
2018-12-06T13:38:39.191Z,11.52
2018-12-06T13:41:06.686Z,11.49
2018-12-06T13:43:34.173Z,11.52
2018-12-06T13:46:01.900Z,11.49
2018-12-06T13:48:29.587Z,11.49
2018-12-06T13:50:57.102Z,11.45
2018-12-06T13:53:24.614Z,11.47
2018-12-06T13:55:52.148Z,11.47
2018-12-06T13:58:20.045Z,11.48
2018-12-06T14:00:47.722Z,11.51
2018-12-06T14:03:15.380Z,11.49
2018-12-06T14:05:42.888Z,11.50
2018-12-06T14:08:10.398Z,11.49
2018-12-06T14:10:37.901Z,11.47
2018-12-06T14:13:05.499Z,11.45
2018-12-06T14:15:32.997Z,11.45
2018-12-06T14:18:00.485Z,11.48
2018-12-06T14:20:28.170Z,11.49
2018-12-06T14:22:55.655Z,11.50
2018-12-06T14:25:23.230Z,11.47
2018-12-06T14:27:50.760Z,11.46
2018-12-06T14:30:18.406Z,11.46
2018-12-06T14:32:45.934Z,11.43
2018-12-06T14:35:13.423Z,11.39
2018-12-06T14:37:40.972Z,11.40
2018-12-06T14:40:08.455Z,11.37
2018-12-06T14:42:35.992Z,11.38
2018-12-06T14:45:04.347Z,11.39
2018-12-06T14:47:31.871Z,11.36
2018-12-06T14:49:59.356Z,11.31
2018-12-06T14:52:26.920Z,11.30
2018-12-06T14:54:54.424Z,11.28
2018-12-06T14:57:21.935Z,11.30
2018-12-06T14:59:49.425Z,11.29
2018-12-06T15:02:16.943Z,11.30
2018-12-06T15:04:44.454Z,11.30
2018-12-06T15:07:11.976Z,11.32
2018-12-06T15:09:39.536Z,11.31
2018-12-06T15:12:07.071Z,11.28
2018-12-06T15:14:34.922Z,11.25
2018-12-06T15:17:02.411Z,11.26
2018-12-06T15:19:30.033Z,11.28
2018-12-06T15:21:57.533Z,11.26
2018-12-06T15:24:25.016Z,11.25
2018-12-06T15:26:52.618Z,11.24
2018-12-06T15:29:20.117Z,11.24
2018-12-06T15:31:47.601Z,11.22
2018-12-06T15:34:15.225Z,11.21
2018-12-06T15:36:42.712Z,11.21
2018-12-06T15:39:10.201Z,11.21
2018-12-06T15:41:37.815Z,11.19
2018-12-06T15:44:05.346Z,11.20
2018-12-06T15:46:32.865Z,11.17
2018-12-06T15:49:00.437Z,11.14
2018-12-06T15:51:27.971Z,11.16
2018-12-06T15:53:55.498Z,11.19
2018-12-06T15:56:23.043Z,11.18
2018-12-06T15:58:50.537Z,11.14
2018-12-06T16:01:18.106Z,11.12
2018-12-06T16:03:45.596Z,11.14
2018-12-06T16:06:13.128Z,11.14
2018-12-06T16:08:40.789Z,11.11
2018-12-06T16:11:08.293Z,11.11
2018-12-06T16:13:35.785Z,11.09
2018-12-06T16:16:03.296Z,11.09
2018-12-06T16:18:30.797Z,11.06
2018-12-06T16:20:58.289Z,11.07
2018-12-06T16:23:25.919Z,11.07
2018-12-06T16:25:53.477Z,11.08
2018-12-06T16:28:21.022Z,11.06
2018-12-06T16:30:48.601Z,11.07
2018-12-06T16:33:16.106Z,11.07
2018-12-06T16:35:43.639Z,11.07
2018-12-06T16:38:11.251Z,11.06
2018-12-06T16:40:38.801Z,11.08
2018-12-06T16:43:06.345Z,11.06
2018-12-06T16:45:33.877Z,11.05
2018-12-06T16:48:01.470Z,11.03
2018-12-06T16:50:29.020Z,11.06
2018-12-06T16:52:56.558Z,11.06
2018-12-06T16:55:24.097Z,11.02
2018-12-06T16:57:51.634Z,11.02
2018-12-06T17:00:19.186Z,11.01
2018-12-06T17:02:46.746Z,11.01
2018-12-06T17:05:14.241Z,11.00
2018-12-06T17:07:41.770Z,11.03
2018-12-06T17:10:09.417Z,11.00
2018-12-06T17:12:36.899Z,11.02
2018-12-06T17:15:04.592Z,11.05
2018-12-06T17:17:32.082Z,11.04
2018-12-06T17:19:59.568Z,11.06
2018-12-06T17:22:27.080Z,11.06
2018-12-06T17:24:54.569Z,11.07
2018-12-06T17:27:22.143Z,11.09
2018-12-06T17:29:49.678Z,11.14
2018-12-06T17:32:17.164Z,11.14
2018-12-06T17:34:44.678Z,11.14
2018-12-06T17:37:12.159Z,11.13
2018-12-06T17:39:39.787Z,11.16
2018-12-06T17:42:07.331Z,11.17
2018-12-06T17:44:35.159Z,11.17
2018-12-06T17:47:02.690Z,11.21
2018-12-06T17:49:30.187Z,11.22
2018-12-06T17:51:57.676Z,11.24
2018-12-06T17:54:25.247Z,11.23
2018-12-06T17:56:52.732Z,11.24
2018-12-06T17:59:20.272Z,11.24
2018-12-06T18:01:47.825Z,11.26
2018-12-06T18:04:15.351Z,11.26
2018-12-06T18:06:42.848Z,11.28
2018-12-06T18:09:10.355Z,11.30
2018-12-06T18:11:38.131Z,11.28
2018-12-06T18:14:05.636Z,11.32
2018-12-06T18:16:33.122Z,11.34
2018-12-06T18:19:00.663Z,11.34
2018-12-06T18:21:28.220Z,11.32
2018-12-06T18:23:55.764Z,11.32
2018-12-06T18:26:23.248Z,11.33
2018-12-06T18:28:50.837Z,11.33
2018-12-06T18:31:18.324Z,11.34
2018-12-06T18:33:45.811Z,11.34
2018-12-06T18:36:13.374Z,11.32
2018-12-06T18:38:40.921Z,11.35
2018-12-06T18:41:08.435Z,11.37
2018-12-06T18:43:35.926Z,11.36
2018-12-06T18:46:03.513Z,11.37
2018-12-06T18:48:31.053Z,11.40
2018-12-06T18:50:58.673Z,11.39
2018-12-06T18:53:26.194Z,11.40
2018-12-06T18:55:53.735Z,11.42
2018-12-06T18:58:21.280Z,11.47
2018-12-06T19:00:48.774Z,11.47
2018-12-06T19:03:16.259Z,11.43
2018-12-06T19:05:43.765Z,11.44
2018-12-06T19:08:11.311Z,11.45
2018-12-06T19:10:38.841Z,11.46
2018-12-06T19:13:06.342Z,11.46
2018-12-06T19:15:33.859Z,11.46
2018-12-06T19:18:01.382Z,11.49
2018-12-06T19:20:28.962Z,11.52
2018-12-06T19:22:56.494Z,11.54
2018-12-06T19:25:23.996Z,11.54
2018-12-06T19:27:51.507Z,11.53
2018-12-06T19:30:18.989Z,11.53
2018-12-06T19:32:46.674Z,11.52
2018-12-06T19:35:14.207Z,11.56
2018-12-06T19:37:42.480Z,11.56
2018-12-06T19:40:10.107Z,11.57
2018-12-06T19:42:38.975Z,11.58
2018-12-06T19:45:06.740Z,11.60
2018-12-06T19:47:34.294Z,11.61
2018-12-06T19:50:01.837Z,11.62
2018-12-06T19:52:29.381Z,11.64
2018-12-06T19:54:56.929Z,11.69
2018-12-06T19:57:24.421Z,11.73
2018-12-06T19:59:51.920Z,11.76
2018-12-06T20:02:19.428Z,11.75
2018-12-06T20:04:46.909Z,11.79
2018-12-06T20:07:14.425Z,11.80
2018-12-06T20:09:41.920Z,11.81
2018-12-06T20:12:09.497Z,11.82
2018-12-06T20:14:37.021Z,11.85
2018-12-06T20:17:04.538Z,11.86
2018-12-06T20:19:32.152Z,11.86
2018-12-06T20:21:59.652Z,11.84
2018-12-06T20:24:27.336Z,11.82
2018-12-06T20:26:54.825Z,11.85
2018-12-06T20:29:22.360Z,11.85
2018-12-06T20:31:50.015Z,11.88
2018-12-06T20:34:17.500Z,11.87
2018-12-06T20:36:45.035Z,11.85
2018-12-06T20:39:12.552Z,11.85
2018-12-06T20:41:40.156Z,11.87
2018-12-06T20:44:07.651Z,11.89
2018-12-06T20:46:35.330Z,11.86
2018-12-06T20:49:02.832Z,11.87
2018-12-06T20:51:30.359Z,11.87
2018-12-06T20:53:57.876Z,11.89
2018-12-06T20:56:25.377Z,11.86
2018-12-06T20:58:52.901Z,11.87
2018-12-06T21:01:20.402Z,11.85
2018-12-06T21:03:48.030Z,11.85
2018-12-06T21:06:15.529Z,11.87
2018-12-06T21:08:43.017Z,11.86
2018-12-06T21:11:10.568Z,11.83
2018-12-06T21:13:38.081Z,11.84
2018-12-06T21:16:05.602Z,11.80
2018-12-06T21:18:33.098Z,11.82
2018-12-06T21:21:00.716Z,11.78
2018-12-06T21:23:28.263Z,11.79
2018-12-06T21:25:55.784Z,11.77
2018-12-06T21:28:23.505Z,11.73
2018-12-06T21:30:51.306Z,11.73
2018-12-06T21:33:18.797Z,11.74
2018-12-06T21:35:46.366Z,11.75
2018-12-06T21:38:13.873Z,11.75
2018-12-06T21:40:41.363Z,11.72
2018-12-06T21:43:08.872Z,11.70
2018-12-06T21:45:36.352Z,11.68
2018-12-06T21:48:03.922Z,11.66
2018-12-06T21:50:31.433Z,11.64
2018-12-06T21:52:58.973Z,11.63
2018-12-06T21:55:26.754Z,11.63
2018-12-06T21:57:54.242Z,11.63
2018-12-06T22:00:21.750Z,11.63
2018-12-06T22:02:49.363Z,11.62
2018-12-06T22:05:16.889Z,11.62
2018-12-06T22:07:44.411Z,11.58
2018-12-06T22:10:11.926Z,11.55
2018-12-06T22:12:39.404Z,11.55
2018-12-06T22:15:06.935Z,11.52
2018-12-06T22:17:34.479Z,11.52
2018-12-06T22:20:02.022Z,11.51
2018-12-06T22:22:29.569Z,11.51
2018-12-06T22:24:57.061Z,11.49
2018-12-06T22:27:24.609Z,11.48
2018-12-06T22:29:52.107Z,11.47
2018-12-06T22:32:19.600Z,11.48
2018-12-06T22:34:47.152Z,11.46
2018-12-06T22:37:14.674Z,11.44
2018-12-06T22:39:42.186Z,11.46
2018-12-06T22:42:09.684Z,11.48
2018-12-06T22:44:37.294Z,11.44
2018-12-06T22:47:04.877Z,11.46
2018-12-06T22:49:32.387Z,11.44
2018-12-06T22:51:59.930Z,11.43
2018-12-06T22:54:27.541Z,11.50
2018-12-06T22:56:55.049Z,11.47
2018-12-06T22:59:22.596Z,11.45
2018-12-06T23:01:50.139Z,11.44
2018-12-06T23:04:17.696Z,11.46
2018-12-06T23:06:45.249Z,11.45
2018-12-06T23:09:12.738Z,11.48
2018-12-06T23:11:40.240Z,11.49
2018-12-06T23:14:07.774Z,11.47
2018-12-06T23:16:35.579Z,11.44
2018-12-06T23:19:03.258Z,11.46
2018-12-06T23:21:30.776Z,11.45
2018-12-06T23:23:58.381Z,11.47
2018-12-06T23:26:25.874Z,11.43
2018-12-06T23:28:53.355Z,11.47
2018-12-06T23:31:20.951Z,11.46
2018-12-06T23:33:48.438Z,11.45
2018-12-06T23:36:15.933Z,11.43
2018-12-06T23:38:43.438Z,11.44
2018-12-06T23:41:10.920Z,11.46
2018-12-06T23:43:38.498Z,11.45
2018-12-06T23:46:05.989Z,11.45
2018-12-06T23:48:33.481Z,11.43
2018-12-06T23:51:12.976Z,11.45
2018-12-06T23:53:40.629Z,11.46
2018-12-06T23:56:08.114Z,11.47
2018-12-06T23:58:35.651Z,11.46
